sensor_id;sensor_type;location;lat;lon;timestamp;pressure;altitude;pressure_sealevel;temperature;humidity
27232;BME280;61835;50.196;6.454;2022-09-09T00:02:24;95875.63;;;18.88;100.00
27232;BME280;61835;50.196;6.454;2022-09-09T00:04:59;95869.91;;;19.13;100.00
27232;BME280;61835;50.196;6.454;2022-09-09T00:07:58;95863.09;;;19.17;100.00
27232;BME280;61835;50.196;6.454;2022-09-09T00:10:28;95866.69;;;19.03;100.00
27232;BME280;61835;50.196;6.454;2022-09-09T00:13:19;95860.69;;;19.01;100.00
27232;BME280;61835;50.196;6.454;2022-09-09T00:16:27;95855.38;;;19.07;100.00
27232;BME280;61835;50.196;6.454;2022-09-09T00:22:13;95845.19;;;19.03;100.00
27232;BME280;61835;50.196;6.454;2022-09-09T00:24:52;95855.31;;;19.22;100.00
27232;BME280;61835;50.196;6.454;2022-09-09T00:27:33;95852.81;;;19.20;100.00
27232;BME280;61835;50.196;6.454;2022-09-09T00:30:20;95859.16;;;19.13;100.00
27232;BME280;61835;50.196;6.454;2022-09-09T00:33:08;95857.09;;;19.15;100.00
27232;BME280;61835;50.196;6.454;2022-09-09T00:35:38;95855.19;;;19.09;100.00
27232;BME280;61835;50.196;6.454;2022-09-09T00:40:50;95850.00;;;19.07;100.00
27232;BME280;61835;50.196;6.454;2022-09-09T00:43:28;95862.84;;;18.90;100.00
27232;BME280;61835;50.196;6.454;2022-09-09T00:54:51;95863.31;;;19.36;100.00
27232;BME280;61835;50.196;6.454;2022-09-09T00:57:30;95870.84;;;19.05;100.00
27232;BME280;61835;50.196;6.454;2022-09-09T01:00:31;95869.78;;;19.21;100.00
27232;BME280;61835;50.196;6.454;2022-09-09T01:08:22;95863.78;;;19.19;100.00
27232;BME280;61835;50.196;6.454;2022-09-09T01:10:54;95859.59;;;19.16;100.00
27232;BME280;61835;50.196;6.454;2022-09-09T01:13:30;95854.69;;;19.41;100.00
27232;BME280;61835;50.196;6.454;2022-09-09T01:16:03;95853.56;;;19.14;100.00
27232;BME280;61835;50.196;6.454;2022-09-09T01:18:36;95848.28;;;19.21;100.00
27232;BME280;61835;50.196;6.454;2022-09-09T01:26:59;95859.59;;;19.16;100.00
27232;BME280;61835;50.196;6.454;2022-09-09T01:29:26;95854.88;;;19.18;100.00
27232;BME280;61835;50.196;6.454;2022-09-09T01:32:54;95859.13;;;19.34;100.00
27232;BME280;61835;50.196;6.454;2022-09-09T01:34:59;95864.16;;;19.16;100.00
27232;BME280;61835;50.196;6.454;2022-09-09T01:37:25;95860.69;;;19.01;100.00
27232;BME280;61835;50.196;6.454;2022-09-09T01:39:50;95853.75;;;19.34;100.00
27232;BME280;61835;50.196;6.454;2022-09-09T01:42:17;95854.13;;;19.31;100.00
27232;BME280;61835;50.196;6.454;2022-09-09T01:44:43;95857.09;;;18.93;100.00
27232;BME280;61835;50.196;6.454;2022-09-09T01:47:09;95864.13;;;18.94;100.00
27232;BME280;61835;50.196;6.454;2022-09-09T01:49:49;95864.38;;;19.00;100.00
27232;BME280;61835;50.196;6.454;2022-09-09T01:52:21;95864.84;;;18.67;100.00
27232;BME280;61835;50.196;6.454;2022-09-09T01:54:46;95856.44;;;18.91;100.00
27232;BME280;61835;50.196;6.454;2022-09-09T01:57:33;95855.41;;;18.92;100.00
27232;BME280;61835;50.196;6.454;2022-09-09T02:00:08;95851.03;;;18.70;100.00
27232;BME280;61835;50.196;6.454;2022-09-09T02:05:59;95852.75;;;18.78;100.00
27232;BME280;61835;50.196;6.454;2022-09-09T02:08:49;95841.63;;;18.60;100.00
27232;BME280;61835;50.196;6.454;2022-09-09T02:11:22;95860.72;;;18.50;100.00
27232;BME280;61835;50.196;6.454;2022-09-09T02:13:57;95862.91;;;18.61;100.00
27232;BME280;61835;50.196;6.454;2022-09-09T02:16:35;95855.81;;;18.54;100.00
27232;BME280;61835;50.196;6.454;2022-09-09T02:19:32;95855.03;;;18.45;100.00
27232;BME280;61835;50.196;6.454;2022-09-09T02:22:05;95857.63;;;18.38;100.00
27232;BME280;61835;50.196;6.454;2022-09-09T02:24:33;95854.22;;;18.30;100.00
27232;BME280;61835;50.196;6.454;2022-09-09T02:27:12;95848.44;;;18.77;100.00
27232;BME280;61835;50.196;6.454;2022-09-09T02:29:41;95845.78;;;18.62;100.00
27232;BME280;61835;50.196;6.454;2022-09-09T02:32:15;95842.34;;;18.68;100.00
27232;BME280;61835;50.196;6.454;2022-09-09T02:34:49;95839.53;;;18.76;100.00
27232;BME280;61835;50.196;6.454;2022-09-09T02:37:19;95846.50;;;18.71;100.00
27232;BME280;61835;50.196;6.454;2022-09-09T02:39:49;95843.09;;;18.62;100.00
27232;BME280;61835;50.196;6.454;2022-09-09T02:42:18;95846.22;;;18.36;100.00
27232;BME280;61835;50.196;6.454;2022-09-09T02:44:44;95835.66;;;18.64;100.00
27232;BME280;61835;50.196;6.454;2022-09-09T02:47:34;95822.72;;;18.53;100.00
27232;BME280;61835;50.196;6.454;2022-09-09T02:50:19;95830.94;;;18.37;100.00
27232;BME280;61835;50.196;6.454;2022-09-09T02:53:27;95823.94;;;18.51;100.00
27232;BME280;61835;50.196;6.454;2022-09-09T02:56:04;95824.56;;;18.38;100.00
27232;BME280;61835;50.196;6.454;2022-09-09T02:58:35;95814.84;;;18.52;100.00
27232;BME280;61835;50.196;6.454;2022-09-09T03:01:04;95827.00;;;18.18;100.00
27232;BME280;61835;50.196;6.454;2022-09-09T03:03:31;95821.66;;;18.04;100.00
27232;BME280;61835;50.196;6.454;2022-09-09T03:05:58;95826.19;;;18.03;100.00
27232;BME280;61835;50.196;6.454;2022-09-09T03:08:25;95835.34;;;18.09;100.00
27232;BME280;61835;50.196;6.454;2022-09-09T03:10:54;95826.06;;;18.11;100.00
27232;BME280;61835;50.196;6.454;2022-09-09T03:13:20;95823.75;;;18.23;100.00
27232;BME280;61835;50.196;6.454;2022-09-09T03:15:48;95823.56;;;18.10;100.00
27232;BME280;61835;50.196;6.454;2022-09-09T03:18:16;95831.19;;;18.06;100.00
27232;BME280;61835;50.196;6.454;2022-09-09T03:20:46;95847.34;;;18.13;100.00
27232;BME280;61835;50.196;6.454;2022-09-09T03:23:14;95839.56;;;18.47;100.00
27232;BME280;61835;50.196;6.454;2022-09-09T03:25:46;95831.59;;;18.68;100.00
27232;BME280;61835;50.196;6.454;2022-09-09T03:28:12;95836.72;;;18.49;100.00
27232;BME280;61835;50.196;6.454;2022-09-09T03:30:38;95839.38;;;18.63;100.00
27232;BME280;61835;50.196;6.454;2022-09-09T03:33:03;95839.75;;;18.60;100.00
27232;BME280;61835;50.196;6.454;2022-09-09T03:35:31;95843.16;;;18.39;100.00
27232;BME280;61835;50.196;6.454;2022-09-09T03:37:57;95836.72;;;18.49;100.00
27232;BME280;61835;50.196;6.454;2022-09-09T03:40:23;95841.13;;;18.71;100.00
27232;BME280;61835;50.196;6.454;2022-09-09T03:43:00;95832.22;;;18.70;100.00
27232;BME280;61835;50.196;6.454;2022-09-09T03:45:27;95823.09;;;18.86;100.00
27232;BME280;61835;50.196;6.454;2022-09-09T03:47:53;95823.16;;;18.71;100.00
27232;BME280;61835;50.196;6.454;2022-09-09T03:50:19;95823.16;;;18.71;100.00
27232;BME280;61835;50.196;6.454;2022-09-09T03:52:46;95813.91;;;18.59;100.00
27232;BME280;61835;50.196;6.454;2022-09-09T03:55:18;95806.78;;;19.09;100.00
27232;BME280;61835;50.196;6.454;2022-09-09T03:57:43;95821.03;;;18.88;100.00
27232;BME280;61835;50.196;6.454;2022-09-09T04:00:09;95822.25;;;18.85;100.00
27232;BME280;61835;50.196;6.454;2022-09-09T04:02:50;95818.06;;;18.62;100.00
27232;BME280;61835;50.196;6.454;2022-09-09T04:05:16;95819.28;;;18.95;100.00
27232;BME280;61835;50.196;6.454;2022-09-09T04:07:44;95820.56;;;18.63;100.00
27232;BME280;61835;50.196;6.454;2022-09-09T04:10:10;95815.91;;;18.93;100.00
27232;BME280;61835;50.196;6.454;2022-09-09T04:12:37;95824.03;;;18.78;100.00
27232;BME280;61835;50.196;6.454;2022-09-09T04:15:03;95815.31;;;18.55;100.00
27232;BME280;61835;50.196;6.454;2022-09-09T04:17:29;95822.31;;;18.71;100.00
27232;BME280;61835;50.196;6.454;2022-09-09T04:19:56;95827.75;;;18.99;100.00
27232;BME280;61835;50.196;6.454;2022-09-09T04:22:22;95833.13;;;18.77;100.00
27232;BME280;61835;50.196;6.454;2022-09-09T04:24:48;95828.78;;;18.76;100.00
27232;BME280;61835;50.196;6.454;2022-09-09T04:27:14;95822.59;;;18.61;100.00
27232;BME280;61835;50.196;6.454;2022-09-09T04:29:40;95822.66;;;18.82;100.00
27232;BME280;61835;50.196;6.454;2022-09-09T04:32:07;95821.56;;;18.98;100.00
27232;BME280;61835;50.196;6.454;2022-09-09T04:34:32;95815.88;;;19.08;100.00
27232;BME280;61835;50.196;6.454;2022-09-09T04:36:58;95825.06;;;18.99;100.00
27232;BME280;61835;50.196;6.454;2022-09-09T04:39:24;95825.38;;;18.68;100.00
27232;BME280;61835;50.196;6.454;2022-09-09T04:41:50;95821.88;;;18.88;100.00
27232;BME280;61835;50.196;6.454;2022-09-09T04:44:16;95829.44;;;19.00;100.00
27232;BME280;61835;50.196;6.454;2022-09-09T04:46:41;95828.50;;;19.07;100.00
27232;BME280;61835;50.196;6.454;2022-09-09T04:49:07;95835.19;;;18.97;100.00
27232;BME280;61835;50.196;6.454;2022-09-09T04:51:33;95841.19;;;18.77;100.00
27232;BME280;61835;50.196;6.454;2022-09-09T04:53:58;95839.94;;;18.94;100.00
27232;BME280;61835;50.196;6.454;2022-09-09T04:56:24;95853.19;;;18.96;100.00
27232;BME280;61835;50.196;6.454;2022-09-09T04:58:55;95838.69;;;18.76;100.00
27232;BME280;61835;50.196;6.454;2022-09-09T05:01:25;95850.69;;;18.94;100.00
27232;BME280;61835;50.196;6.454;2022-09-09T05:03:57;95844.66;;;18.71;100.00
27232;BME280;61835;50.196;6.454;2022-09-09T05:06:23;95840.72;;;19.10;100.00
27232;BME280;61835;50.196;6.454;2022-09-09T05:08:53;95845.16;;;18.81;100.00
27232;BME280;61835;50.196;6.454;2022-09-09T05:11:25;95848.53;;;18.69;100.00
27232;BME280;61835;50.196;6.454;2022-09-09T05:13:54;95852.72;;;18.42;100.00
27232;BME280;61835;50.196;6.454;2022-09-09T05:16:20;95856.19;;;18.72;100.00
27232;BME280;61835;50.196;6.454;2022-09-09T05:18:46;95852.34;;;18.74;100.00
27232;BME280;61835;50.196;6.454;2022-09-09T05:21:13;95850.81;;;18.72;100.00
27232;BME280;61835;50.196;6.454;2022-09-09T05:23:40;95844.16;;;18.82;100.00
27232;BME280;61835;50.196;6.454;2022-09-09T05:26:07;95843.59;;;18.72;100.00
27232;BME280;61835;50.196;6.454;2022-09-09T05:28:36;95847.53;;;18.55;100.00
27232;BME280;61835;50.196;6.454;2022-09-09T05:31:04;95856.28;;;18.78;100.00
27232;BME280;61835;50.196;6.454;2022-09-09T05:33:32;95851.03;;;18.70;100.00
27232;BME280;61835;50.196;6.454;2022-09-09T05:36:03;95850.53;;;18.81;100.00
27232;BME280;61835;50.196;6.454;2022-09-09T05:38:32;95847.28;;;18.50;100.00
27232;BME280;61835;50.196;6.454;2022-09-09T05:41:02;95856.22;;;18.57;100.00
27232;BME280;61835;50.196;6.454;2022-09-09T05:43:28;95847.53;;;18.55;100.00
27232;BME280;61835;50.196;6.454;2022-09-09T05:46:24;95846.72;;;18.90;100.00
27232;BME280;61835;50.196;6.454;2022-09-09T05:48:52;95844.34;;;18.66;100.00
27232;BME280;61835;50.196;6.454;2022-09-09T05:51:24;95852.25;;;18.68;100.00
27232;BME280;61835;50.196;6.454;2022-09-09T05:54:07;95848.00;;;18.29;100.00
27232;BME280;61835;50.196;6.454;2022-09-09T05:56:36;95850.09;;;18.63;100.00
27232;BME280;61835;50.196;6.454;2022-09-09T05:59:04;95849.34;;;18.69;100.00
27232;BME280;61835;50.196;6.454;2022-09-09T06:01:32;95853.38;;;18.94;100.00
27232;BME280;61835;50.196;6.454;2022-09-09T06:03:58;95851.03;;;18.70;100.00
27232;BME280;61835;50.196;6.454;2022-09-09T06:06:31;95850.56;;;19.03;100.00
27232;BME280;61835;50.196;6.454;2022-09-09T06:09:03;95851.38;;;18.82;100.00
27232;BME280;61835;50.196;6.454;2022-09-09T06:11:36;95855.94;;;18.67;100.00
27232;BME280;61835;50.196;6.454;2022-09-09T06:14:02;95853.19;;;19.17;100.00
27232;BME280;61835;50.196;6.454;2022-09-09T06:16:30;95854.41;;;19.15;100.00
27232;BME280;61835;50.196;6.454;2022-09-09T06:18:58;95845.81;;;18.83;100.00
27232;BME280;61835;50.196;6.454;2022-09-09T06:21:28;95839.47;;;18.91;100.00
27232;BME280;61835;50.196;6.454;2022-09-09T06:23:56;95849.41;;;19.12;100.00
27232;BME280;61835;50.196;6.454;2022-09-09T06:26:23;95838.13;;;19.23;100.00
27232;BME280;61835;50.196;6.454;2022-09-09T06:28:51;95835.34;;;19.52;100.00
27232;BME280;61835;50.196;6.454;2022-09-09T06:31:20;95834.13;;;19.12;100.00
27232;BME280;61835;50.196;6.454;2022-09-09T06:33:51;95831.75;;;19.03;100.00
27232;BME280;61835;50.196;6.454;2022-09-09T06:36:23;95835.31;;;18.38;100.00
27232;BME280;61835;50.196;6.454;2022-09-09T06:38:49;95840.81;;;18.80;100.00
27232;BME280;61835;50.196;6.454;2022-09-09T06:41:17;95831.53;;;18.83;100.00
27232;BME280;61835;50.196;6.454;2022-09-09T06:43:48;95828.59;;;18.99;100.00
27232;BME280;61835;50.196;6.454;2022-09-09T06:46:16;95831.81;;;19.09;100.00
27232;BME280;61835;50.196;6.454;2022-09-09T06:48:43;95828.13;;;18.95;100.00
27232;BME280;61835;50.196;6.454;2022-09-09T06:51:19;95835.88;;;18.63;100.00
27232;BME280;61835;50.196;6.454;2022-09-09T06:53:53;95841.72;;;18.87;100.00
27232;BME280;61835;50.196;6.454;2022-09-09T06:56:28;95833.88;;;19.07;100.00
27232;BME280;61835;50.196;6.454;2022-09-09T06:58:57;95835.59;;;19.15;100.00
27232;BME280;61835;50.196;6.454;2022-09-09T07:01:28;95838.13;;;19.23;100.00
27232;BME280;61835;50.196;6.454;2022-09-09T07:03:57;95833.97;;;19.63;100.00
27232;BME280;61835;50.196;6.454;2022-09-09T07:06:27;95839.81;;;19.66;100.00
27232;BME280;61835;50.196;6.454;2022-09-09T07:08:56;95842.38;;;19.53;100.00
27232;BME280;61835;50.196;6.454;2022-09-09T07:11:28;95838.41;;;19.49;100.00
27232;BME280;61835;50.196;6.454;2022-09-09T07:13:56;95840.72;;;19.10;100.00
27232;BME280;61835;50.196;6.454;2022-09-09T07:16:22;95843.41;;;19.10;100.00
27232;BME280;61835;50.196;6.454;2022-09-09T07:18:50;95850.31;;;19.19;100.00
27232;BME280;61835;50.196;6.454;2022-09-09T07:21:16;95842.13;;;19.27;100.00
27232;BME280;61835;50.196;6.454;2022-09-09T07:23:42;95842.88;;;19.00;100.00
27232;BME280;61835;50.196;6.454;2022-09-09T07:28:35;95846.59;;;19.62;100.00
27232;BME280;61835;50.196;6.454;2022-09-09T07:31:01;95842.31;;;19.46;100.00
27232;BME280;61835;50.196;6.454;2022-09-09T07:33:32;95841.59;;;19.59;100.00
27232;BME280;61835;50.196;6.454;2022-09-09T07:36:07;95852.84;;;19.41;100.00
27232;BME280;61835;50.196;6.454;2022-09-09T07:38:44;95852.44;;;19.23;100.00
27232;BME280;61835;50.196;6.454;2022-09-09T07:41:16;95863.50;;;19.14;100.00
27232;BME280;61835;50.196;6.454;2022-09-09T07:43:45;95863.03;;;18.89;100.00
27232;BME280;61835;50.196;6.454;2022-09-09T07:46:13;95867.69;;;19.02;100.00
27232;BME280;61835;50.196;6.454;2022-09-09T07:48:48;95868.38;;;19.25;100.00
27232;BME280;61835;50.196;6.454;2022-09-09T07:51:29;95868.50;;;19.17;100.00
27232;BME280;61835;50.196;6.454;2022-09-09T07:53:58;95871.06;;;19.25;100.00
27232;BME280;61835;50.196;6.454;2022-09-09T07:56:26;95879.78;;;19.27;100.00
27232;BME280;61835;50.196;6.454;2022-09-09T07:58:53;95873.81;;;20.01;100.00
27232;BME280;61835;50.196;6.454;2022-09-09T08:01:31;95878.75;;;19.49;100.00
27232;BME280;61835;50.196;6.454;2022-09-09T08:04:03;95876.84;;;19.64;100.00
27232;BME280;61835;50.196;6.454;2022-09-09T08:06:32;95885.22;;;19.33;100.00
27232;BME280;61835;50.196;6.454;2022-09-09T08:08:59;95865.53;;;19.47;100.00
27232;BME280;61835;50.196;6.454;2022-09-09T08:11:26;95872.97;;;19.10;100.00
27232;BME280;61835;50.196;6.454;2022-09-09T08:13:53;95881.06;;;19.73;100.00
27232;BME280;61835;50.196;6.454;2022-09-09T08:16:23;95880.25;;;19.37;100.00
27232;BME280;61835;50.196;6.454;2022-09-09T08:18:50;95877.47;;;19.94;100.00
27232;BME280;61835;50.196;6.454;2022-09-09T08:21:22;95870.31;;;20.08;100.00
27232;BME280;61835;50.196;6.454;2022-09-09T08:23:51;95869.25;;;20.30;100.00
27232;BME280;61835;50.196;6.454;2022-09-09T08:26:20;95862.34;;;20.55;100.00
27232;BME280;61835;50.196;6.454;2022-09-09T08:28:51;95884.44;;;20.10;100.00
27232;BME280;61835;50.196;6.454;2022-09-09T08:31:23;95874.63;;;20.02;100.00
27232;BME280;61835;50.196;6.454;2022-09-09T08:33:48;95884.66;;;20.15;100.00
27232;BME280;61835;50.196;6.454;2022-09-09T08:36:16;95873.00;;;19.52;100.00
27232;BME280;61835;50.196;6.454;2022-09-09T08:38:43;95881.81;;;20.23;100.00
27232;BME280;61835;50.196;6.454;2022-09-09T08:44:04;95883.50;;;20.24;100.00
27232;BME280;61835;50.196;6.454;2022-09-09T08:46:42;95879.94;;;19.89;100.00
27232;BME280;61835;50.196;6.454;2022-09-09T08:51:53;95885.88;;;19.84;100.00
27232;BME280;61835;50.196;6.454;2022-09-09T08:54:20;95879.50;;;19.85;100.00
27232;BME280;61835;50.196;6.454;2022-09-09T08:56:46;95880.19;;;20.56;100.00
27232;BME280;61835;50.196;6.454;2022-09-09T08:59:17;95874.94;;;20.89;100.00
27232;BME280;61835;50.196;6.454;2022-09-09T09:02:14;95887.00;;;20.52;100.00
27232;BME280;61835;50.196;6.454;2022-09-09T09:04:56;95880.13;;;20.43;100.00
27232;BME280;61835;50.196;6.454;2022-09-09T09:07:40;95879.69;;;20.87;100.00
27232;BME280;61835;50.196;6.454;2022-09-09T09:10:44;95883.41;;;20.86;100.00
27232;BME280;61835;50.196;6.454;2022-09-09T09:13:45;95873.31;;;20.53;100.00
27232;BME280;61835;50.196;6.454;2022-09-09T09:16:30;95886.22;;;20.65;100.00
27232;BME280;61835;50.196;6.454;2022-09-09T09:18:59;95882.97;;;20.35;100.00
27232;BME280;61835;50.196;6.454;2022-09-09T09:21:44;95877.47;;;21.03;100.00
27232;BME280;61835;50.196;6.454;2022-09-09T09:24:19;95879.47;;;21.49;100.00
27232;BME280;61835;50.196;6.454;2022-09-09T09:26:46;95877.13;;;21.20;100.00
27232;BME280;61835;50.196;6.454;2022-09-09T09:29:15;95876.06;;;20.60;100.00
27232;BME280;61835;50.196;6.454;2022-09-09T09:31:56;95889.66;;;20.18;100.00
27232;BME280;61835;50.196;6.454;2022-09-09T09:34:24;95886.25;;;20.02;100.00
27232;BME280;61835;50.196;6.454;2022-09-09T09:36:58;95892.69;;;20.01;100.00
27232;BME280;61835;50.196;6.454;2022-09-09T09:39:31;95903.13;;;19.90;100.00
27232;BME280;61835;50.196;6.454;2022-09-09T09:42:15;95905.50;;;19.78;100.00
27232;BME280;61835;50.196;6.454;2022-09-09T09:44:43;95909.78;;;18.73;100.00
27232;BME280;61835;50.196;6.454;2022-09-09T09:47:18;95915.50;;;19.21;100.00
27232;BME280;61835;50.196;6.454;2022-09-09T09:49:59;95913.53;;;18.93;100.00
27232;BME280;61835;50.196;6.454;2022-09-09T09:52:30;95913.25;;;19.24;100.00
27232;BME280;61835;50.196;6.454;2022-09-09T09:55:03;95902.69;;;19.23;100.00
27232;BME280;61835;50.196;6.454;2022-09-09T09:57:31;95910.09;;;19.57;100.00
27232;BME280;61835;50.196;6.454;2022-09-09T10:02:41;95903.56;;;19.93;100.00
27232;BME280;61835;50.196;6.454;2022-09-09T10:08:18;95900.53;;;20.03;100.00
27232;BME280;61835;50.196;6.454;2022-09-09T10:13:58;95898.13;;;20.15;100.00
27232;BME280;61835;50.196;6.454;2022-09-09T10:19:35;95888.22;;;20.43;100.00
27232;BME280;61835;50.196;6.454;2022-09-09T10:22:28;95883.72;;;20.56;100.00
27232;BME280;61835;50.196;6.454;2022-09-09T10:25:20;95881.72;;;20.72;100.00
27232;BME280;61835;50.196;6.454;2022-09-09T10:33:34;95877.59;;;20.82;100.00
27232;BME280;61835;50.196;6.454;2022-09-09T10:36:23;95892.94;;;20.82;100.00
27232;BME280;61835;50.196;6.454;2022-09-09T10:41:42;95876.38;;;21.78;100.00
27232;BME280;61835;50.196;6.454;2022-09-09T10:47:21;95877.66;;;20.95;100.00
27232;BME280;61835;50.196;6.454;2022-09-09T10:50:25;95884.03;;;20.81;100.00
27232;BME280;61835;50.196;6.454;2022-09-09T10:53:02;95875.69;;;20.76;100.00
27232;BME280;61835;50.196;6.454;2022-09-09T10:55:39;95883.63;;;20.37;100.00
27232;BME280;61835;50.196;6.454;2022-09-09T10:58:11;95877.88;;;20.53;100.00
27232;BME280;61835;50.196;6.454;2022-09-09T11:00:42;95877.91;;;20.59;100.00
27232;BME280;61835;50.196;6.454;2022-09-09T11:03:22;95873.88;;;20.83;100.00
27232;BME280;61835;50.196;6.454;2022-09-09T11:05:53;95867.81;;;21.35;100.00
27232;BME280;61835;50.196;6.454;2022-09-09T11:08:25;95870.16;;;21.84;100.00
27232;BME280;61835;50.196;6.454;2022-09-09T11:11:13;95861.63;;;21.48;100.00
27232;BME280;61835;50.196;6.454;2022-09-09T11:16:30;95856.88;;;22.79;100.00
27232;BME280;61835;50.196;6.454;2022-09-09T11:19:26;95850.19;;;23.89;100.00
27232;BME280;61835;50.196;6.454;2022-09-09T11:21:54;95846.78;;;23.06;100.00
27232;BME280;61835;50.196;6.454;2022-09-09T11:24:34;95841.28;;;24.31;100.00
27232;BME280;61835;50.196;6.454;2022-09-09T11:30:13;95826.47;;;25.18;100.00
27232;BME280;61835;50.196;6.454;2022-09-09T11:40:26;95828.91;;;24.17;100.00
27232;BME280;61835;50.196;6.454;2022-09-09T11:43:14;95830.94;;;23.48;100.00
27232;BME280;61835;50.196;6.454;2022-09-09T11:45:41;95832.19;;;22.56;100.00
27232;BME280;61835;50.196;6.454;2022-09-09T11:48:24;95842.78;;;22.71;100.00
27232;BME280;61835;50.196;6.454;2022-09-09T11:51:08;95834.16;;;22.30;100.00
27232;BME280;61835;50.196;6.454;2022-09-09T11:53:35;95839.59;;;22.23;100.00
27232;BME280;61835;50.196;6.454;2022-09-09T11:56:13;95838.38;;;21.99;100.00
27232;BME280;61835;50.196;6.454;2022-09-09T11:58:57;95836.19;;;22.47;100.00
27232;BME280;61835;50.196;6.454;2022-09-09T12:06:50;95835.34;;;22.47;100.00
27232;BME280;61835;50.196;6.454;2022-09-09T12:09:44;95838.16;;;21.42;100.00
27232;BME280;61835;50.196;6.454;2022-09-09T12:14:42;95851.94;;;21.06;100.00
27232;BME280;61835;50.196;6.454;2022-09-09T12:17:18;95861.84;;;20.86;100.00
27232;BME280;61835;50.196;6.454;2022-09-09T12:19:44;95872.50;;;20.53;100.00
27232;BME280;61835;50.196;6.454;2022-09-09T12:22:26;95872.09;;;20.56;100.00
27232;BME280;61835;50.196;6.454;2022-09-09T12:28:47;95878.34;;;20.63;100.00
27232;BME280;61835;50.196;6.454;2022-09-09T12:33:45;95895.88;;;19.63;100.00
27232;BME280;61835;50.196;6.454;2022-09-09T12:36:18;95910.31;;;18.69;100.00
27232;BME280;61835;50.196;6.454;2022-09-09T12:38:45;95917.28;;;19.14;100.00
27232;BME280;61835;50.196;6.454;2022-09-09T12:41:27;95921.34;;;18.74;100.00
27232;BME280;61835;50.196;6.454;2022-09-09T12:44:05;95919.13;;;19.13;100.00
27232;BME280;61835;50.196;6.454;2022-09-09T12:46:40;95919.16;;;18.99;100.00
27232;BME280;61835;50.196;6.454;2022-09-09T12:49:28;95905.34;;;19.02;100.00
27232;BME280;61835;50.196;6.454;2022-09-09T12:51:56;95900.06;;;19.29;100.00
27232;BME280;61835;50.196;6.454;2022-09-09T12:54:22;95895.97;;;19.33;100.00
27232;BME280;61835;50.196;6.454;2022-09-09T12:56:48;95903.31;;;20.78;100.00
27232;BME280;61835;50.196;6.454;2022-09-09T12:59:42;95885.03;;;21.28;100.00
27232;BME280;61835;50.196;6.454;2022-09-09T13:02:25;95868.06;;;22.19;100.00
27232;BME280;61835;50.196;6.454;2022-09-09T13:04:51;95867.56;;;22.55;100.00
27232;BME280;61835;50.196;6.454;2022-09-09T13:07:20;95858.09;;;22.13;100.00
27232;BME280;61835;50.196;6.454;2022-09-09T13:09:48;95868.19;;;21.12;100.00
27232;BME280;61835;50.196;6.454;2022-09-09T13:12:21;95877.22;;;20.17;100.00
27232;BME280;61835;50.196;6.454;2022-09-09T13:14:50;95876.69;;;20.62;100.00
27232;BME280;61835;50.196;6.454;2022-09-09T13:17:20;95879.59;;;20.67;100.00
27232;BME280;61835;50.196;6.454;2022-09-09T13:19:47;95883.56;;;21.32;100.00
27232;BME280;61835;50.196;6.454;2022-09-09T13:22:31;95867.22;;;22.18;100.00
27232;BME280;61835;50.196;6.454;2022-09-09T13:25:03;95857.69;;;21.57;100.00
27232;BME280;61835;50.196;6.454;2022-09-09T13:27:35;95864.69;;;21.38;100.00
27232;BME280;61835;50.196;6.454;2022-09-09T13:30:39;95862.25;;;21.69;100.00
27232;BME280;61835;50.196;6.454;2022-09-09T13:35:35;95853.66;;;21.20;100.00
27232;BME280;61835;50.196;6.454;2022-09-09T13:38:08;95847.03;;;21.16;100.00
27232;BME280;61835;50.196;6.454;2022-09-09T13:40:34;95854.63;;;20.99;100.00
27232;BME280;61835;50.196;6.454;2022-09-09T13:43:02;95864.44;;;20.59;100.00
27232;BME280;61835;50.196;6.454;2022-09-09T13:45:28;95866.88;;;20.48;100.00
27232;BME280;61835;50.196;6.454;2022-09-09T13:47:55;95860.88;;;20.18;100.00
27232;BME280;61835;50.196;6.454;2022-09-09T13:50:25;95861.19;;;20.30;100.00
27232;BME280;61835;50.196;6.454;2022-09-09T13:52:55;95857.50;;;20.91;100.00
27232;BME280;61835;50.196;6.454;2022-09-09T13:55:27;95853.31;;;20.76;100.00
27232;BME280;61835;50.196;6.454;2022-09-09T13:57:55;95844.34;;;21.16;100.00
27232;BME280;61835;50.196;6.454;2022-09-09T14:00:21;95844.16;;;21.50;100.00
27232;BME280;61835;50.196;6.454;2022-09-09T14:02:50;95834.63;;;21.94;100.00
27232;BME280;61835;50.196;6.454;2022-09-09T14:05:17;95835.25;;;21.63;100.00
27232;BME280;61835;50.196;6.454;2022-09-09T14:07:43;95835.88;;;21.52;100.00
27232;BME280;61835;50.196;6.454;2022-09-09T14:10:10;95828.81;;;21.84;100.00
27232;BME280;61835;50.196;6.454;2022-09-09T14:12:35;95832.94;;;22.26;100.00
27232;BME280;61835;50.196;6.454;2022-09-09T14:15:05;95836.25;;;22.14;100.00
27232;BME280;61835;50.196;6.454;2022-09-09T14:17:31;95838.34;;;22.12;100.00
27232;BME280;61835;50.196;6.454;2022-09-09T14:19:57;95848.72;;;21.37;100.00
27232;BME280;61835;50.196;6.454;2022-09-09T14:22:23;95844.59;;;21.60;100.00
27232;BME280;61835;50.196;6.454;2022-09-09T14:24:49;95847.91;;;21.49;100.00
27232;BME280;61835;50.196;6.454;2022-09-09T14:27:14;95855.56;;;21.33;100.00
27232;BME280;61835;50.196;6.454;2022-09-09T14:29:40;95846.84;;;21.24;100.00
27232;BME280;61835;50.196;6.454;2022-09-09T14:32:05;95838.59;;;21.52;100.00
27232;BME280;61835;50.196;6.454;2022-09-09T14:34:31;95838.97;;;21.36;100.00
27232;BME280;61835;50.196;6.454;2022-09-09T14:36:58;95834.00;;;21.52;100.00
27232;BME280;61835;50.196;6.454;2022-09-09T14:39:23;95838.28;;;21.07;100.00
27232;BME280;61835;50.196;6.454;2022-09-09T14:41:49;95835.22;;;21.10;100.00
27232;BME280;61835;50.196;6.454;2022-09-09T14:44:14;95843.28;;;21.17;100.00
27232;BME280;61835;50.196;6.454;2022-09-09T14:46:41;95850.16;;;21.13;100.00
27232;BME280;61835;50.196;6.454;2022-09-09T14:49:08;95844.16;;;21.50;100.00